createdAt,value
2022-09-28T00:00:06.607Z,8.87
2022-09-28T00:02:40.185Z,11.40
2022-09-28T00:05:12.699Z,11.40
2022-09-28T00:07:46.943Z,8.20
2022-09-28T00:10:22.306Z,9.73
2022-09-28T00:12:55.562Z,10.00
2022-09-28T00:15:27.450Z,13.07
2022-09-28T00:17:58.118Z,13.33
2022-09-28T00:20:28.885Z,10.53
2022-09-28T00:23:02.154Z,12.73
2022-09-28T00:25:33.115Z,10.37
2022-09-28T00:28:05.208Z,10.70
2022-09-28T00:30:35.969Z,11.13
2022-09-28T00:33:07.047Z,10.23
2022-09-28T00:35:37.848Z,10.37
2022-09-28T00:38:11.214Z,11.80
2022-09-28T00:40:42.061Z,10.60
2022-09-28T00:43:21.344Z,11.93
2022-09-28T00:45:58.739Z,9.97
2022-09-28T00:48:32.729Z,10.20
2022-09-28T00:51:08.308Z,10.90
2022-09-28T00:53:44.441Z,10.17
2022-09-28T00:56:19.216Z,10.00
2022-09-28T00:58:54.870Z,10.80
2022-09-28T01:01:26.943Z,11.20
2022-09-28T01:03:57.639Z,10.03
2022-09-28T01:06:31.056Z,11.03
2022-09-28T01:09:07.708Z,9.83
2022-09-28T01:11:40.822Z,10.93
2022-09-28T01:14:14.551Z,9.93
2022-09-28T01:16:52.582Z,10.40
2022-09-28T01:19:55.538Z,9.93
2022-09-28T01:22:44.892Z,10.10
2022-09-28T01:25:34.264Z,9.67
2022-09-28T01:28:12.342Z,10.80
2022-09-28T01:30:50.175Z,8.70
2022-09-28T01:33:26.456Z,8.40
2022-09-28T01:36:02.635Z,8.43
2022-09-28T01:38:39.896Z,9.50
2022-09-28T01:41:11.848Z,7.77
2022-09-28T01:43:51.099Z,10.40
2022-09-28T01:46:27.785Z,8.80
2022-09-28T01:49:00.955Z,8.83
2022-09-28T01:51:37.958Z,8.03
2022-09-28T01:54:14.848Z,8.47
2022-09-28T01:56:52.040Z,9.80
2022-09-28T01:59:31.052Z,9.27
2022-09-28T02:02:07.174Z,8.87
2022-09-28T02:04:43.765Z,10.63
2022-09-28T02:07:19.154Z,10.77
2022-09-28T02:09:55.457Z,10.10
2022-09-28T02:12:32.343Z,11.07
2022-09-28T02:15:15.160Z,10.30
2022-09-28T02:17:48.825Z,11.20
2022-09-28T02:20:20.170Z,11.60
2022-09-28T02:22:54.358Z,12.43
2022-09-28T02:25:31.029Z,9.33
2022-09-28T02:28:04.714Z,11.50
2022-09-28T02:30:41.616Z,10.73
2022-09-28T02:33:15.691Z,10.93
2022-09-28T02:35:46.684Z,11.20
2022-09-28T02:38:18.507Z,10.33
2022-09-28T02:41:00.336Z,10.03
2022-09-28T02:43:41.527Z,12.30
2022-09-28T02:46:24.895Z,11.47
2022-09-28T02:49:21.484Z,14.63
2022-09-28T02:52:05.878Z,12.20
2022-09-28T02:55:01.514Z,14.00
2022-09-28T02:57:42.146Z,12.70
2022-09-28T03:00:17.734Z,12.00
2022-09-28T03:02:59.543Z,14.70
2022-09-28T03:05:39.877Z,13.53
2022-09-28T03:08:16.752Z,14.80
2022-09-28T03:10:51.919Z,13.70
2022-09-28T03:13:25.608Z,13.90
2022-09-28T03:16:10.515Z,14.80
2022-09-28T03:18:44.776Z,15.50
2022-09-28T03:21:16.211Z,15.23
2022-09-28T03:23:47.917Z,17.93
2022-09-28T03:26:19.897Z,15.70
2022-09-28T03:28:50.803Z,15.53
2022-09-28T03:31:21.581Z,22.27
2022-09-28T03:33:55.724Z,18.37
2022-09-28T03:36:26.864Z,18.40
2022-09-28T03:38:57.822Z,17.77
2022-09-28T03:41:29.248Z,16.50
2022-09-28T03:44:00.384Z,19.27
2022-09-28T03:46:31.203Z,22.13
2022-09-28T03:49:04.581Z,18.57
2022-09-28T03:51:35.352Z,22.53
2022-09-28T03:54:06.422Z,21.87
2022-09-28T03:56:37.119Z,21.77
2022-09-28T03:59:08.010Z,20.63
2022-09-28T04:01:38.900Z,21.80
2022-09-28T04:04:14.300Z,22.03
2022-09-28T04:06:47.413Z,20.97
2022-09-28T04:09:18.946Z,21.20
2022-09-28T04:12:03.349Z,21.77
2022-09-28T04:14:35.237Z,21.03
2022-09-28T04:17:09.483Z,23.23
2022-09-28T04:19:43.220Z,23.87
2022-09-28T04:22:14.345Z,20.10
2022-09-28T04:24:46.561Z,18.90
2022-09-28T04:27:29.798Z,19.67
2022-09-28T04:30:01.555Z,18.80
2022-09-28T04:32:32.467Z,15.60
2022-09-28T04:35:07.062Z,17.57
2022-09-28T04:37:38.352Z,18.60
2022-09-28T04:40:10.312Z,17.77
2022-09-28T04:42:41.423Z,17.67
2022-09-28T04:45:13.426Z,18.00
2022-09-28T04:47:44.214Z,23.40
2022-09-28T04:50:17.941Z,20.77
2022-09-28T04:52:51.683Z,18.20
2022-09-28T04:55:22.653Z,19.47
2022-09-28T04:57:56.554Z,18.40
2022-09-28T05:00:27.375Z,19.40
2022-09-28T05:03:00.526Z,19.77
2022-09-28T05:05:36.402Z,20.47
2022-09-28T05:08:07.179Z,20.77
2022-09-28T05:10:40.483Z,24.50
2022-09-28T05:13:11.618Z,24.90
2022-09-28T05:15:44.024Z,25.00
2022-09-28T05:18:17.410Z,22.80
2022-09-28T05:20:50.775Z,25.80
2022-09-28T05:23:21.600Z,25.97
2022-09-28T05:25:55.716Z,27.60
2022-09-28T05:28:29.693Z,27.10
2022-09-28T05:31:02.795Z,29.67
2022-09-28T05:33:34.650Z,31.17
2022-09-28T05:36:12.543Z,24.30
2022-09-28T05:38:43.363Z,29.67
2022-09-28T05:41:18.239Z,26.33
2022-09-28T05:43:49.186Z,29.43
2022-09-28T05:46:21.834Z,30.17
2022-09-28T05:48:54.261Z,28.80
2022-09-28T05:51:27.721Z,30.13
2022-09-28T05:54:03.158Z,26.77
2022-09-28T05:56:36.609Z,28.53
2022-09-28T05:59:08.000Z,29.50
2022-09-28T06:01:38.981Z,30.17
2022-09-28T06:04:09.940Z,25.10
2022-09-28T06:06:43.391Z,29.13
2022-09-28T06:09:14.470Z,26.63
2022-09-28T06:11:48.351Z,28.70
2022-09-28T06:14:19.191Z,27.70
2022-09-28T06:16:50.438Z,25.23
2022-09-28T06:19:21.532Z,25.50
2022-09-28T06:21:55.064Z,28.73
2022-09-28T06:24:25.869Z,26.93
2022-09-28T06:26:56.731Z,27.07
2022-09-28T06:29:27.478Z,25.13
2022-09-28T06:31:58.239Z,24.30
2022-09-28T06:34:29.975Z,27.77
2022-09-28T06:37:04.739Z,23.17
2022-09-28T06:39:35.494Z,23.10
2022-09-28T06:42:06.572Z,25.43
2022-09-28T06:44:37.600Z,20.50
2022-09-28T06:47:08.547Z,24.57
2022-09-28T06:49:41.289Z,23.50
2022-09-28T06:52:14.842Z,23.13
2022-09-28T06:54:48.629Z,23.90
2022-09-28T06:57:19.479Z,24.10
2022-09-28T06:59:50.201Z,25.40
2022-09-28T07:02:22.777Z,24.83
2022-09-28T07:04:53.534Z,30.40
2022-09-28T07:07:27.137Z,23.00
2022-09-28T07:09:58.244Z,26.10
2022-09-28T07:12:32.295Z,25.10
2022-09-28T07:15:03.908Z,25.83
2022-09-28T07:17:41.284Z,24.80
2022-09-28T07:20:19.763Z,25.00
2022-09-28T07:22:56.415Z,28.07
2022-09-28T07:25:29.799Z,24.17
2022-09-28T07:28:02.497Z,32.40
2022-09-28T07:30:35.976Z,28.37
2022-09-28T07:33:10.690Z,30.90
2022-09-28T07:35:41.984Z,31.70
2022-09-28T07:38:15.530Z,33.37
2022-09-28T07:40:58.922Z,35.20
2022-09-28T07:43:33.334Z,31.33
2022-09-28T07:46:05.985Z,32.70
2022-09-28T07:48:36.900Z,30.17
2022-09-28T07:51:11.548Z,35.43
2022-09-28T07:53:45.870Z,31.50
2022-09-28T07:56:20.403Z,33.57
2022-09-28T07:58:51.748Z,35.90
2022-09-28T08:01:32.080Z,34.37
2022-09-28T08:04:02.993Z,32.03
2022-09-28T08:06:33.994Z,35.67
2022-09-28T08:09:07.348Z,30.27
2022-09-28T08:11:38.723Z,32.10
2022-09-28T08:14:11.034Z,32.07
2022-09-28T08:16:43.735Z,33.00
2022-09-28T08:19:14.755Z,30.20
2022-09-28T08:21:45.603Z,30.90
2022-09-28T08:24:20.656Z,31.83
2022-09-28T08:26:51.431Z,35.10
2022-09-28T08:29:22.346Z,33.80
2022-09-28T08:31:53.293Z,32.57
2022-09-28T08:34:24.086Z,37.50
2022-09-28T08:36:55.464Z,32.80
2022-09-28T08:39:29.466Z,32.67
2022-09-28T08:42:19.431Z,30.07
2022-09-28T08:44:54.610Z,36.93
2022-09-28T08:47:41.120Z,36.37
2022-09-28T08:50:19.335Z,35.63
2022-09-28T08:52:57.555Z,33.67
2022-09-28T08:55:34.588Z,32.50
2022-09-28T08:58:16.367Z,36.77
2022-09-28T09:00:50.446Z,35.00
2022-09-28T09:03:26.546Z,27.80
2022-09-28T09:06:06.265Z,30.67
2022-09-28T09:08:50.262Z,28.43
2022-09-28T09:11:35.493Z,29.47
2022-09-28T09:14:24.496Z,29.93
2022-09-28T09:17:03.272Z,29.07
2022-09-28T09:19:43.347Z,25.23
2022-09-28T09:22:20.382Z,32.00
2022-09-28T09:24:53.340Z,29.20
2022-09-28T09:27:53.596Z,26.97
2022-09-28T09:30:29.834Z,24.10
2022-09-28T09:33:24.130Z,24.70
2022-09-28T09:36:14.503Z,26.33
2022-09-28T09:38:58.704Z,24.63
2022-09-28T09:41:43.924Z,27.30
2022-09-28T09:44:44.950Z,27.23
2022-09-28T09:47:20.608Z,28.50
2022-09-28T09:49:58.403Z,24.53
2022-09-28T09:52:38.776Z,27.10
2022-09-28T09:55:23.363Z,25.77
2022-09-28T09:58:02.345Z,26.73
2022-09-28T10:00:38.058Z,22.30
2022-09-28T10:03:09.508Z,21.57
2022-09-28T10:05:41.734Z,20.97
2022-09-28T10:08:20.733Z,19.60
2022-09-28T10:10:54.309Z,20.40
2022-09-28T10:13:25.500Z,18.80
2022-09-28T10:15:59.907Z,18.87
2022-09-28T10:18:31.327Z,18.40
2022-09-28T10:21:02.341Z,20.00
2022-09-28T10:23:37.732Z,19.73
2022-09-28T10:26:13.563Z,18.00
2022-09-28T10:28:51.336Z,15.20
2022-09-28T10:31:43.588Z,15.57
2022-09-28T10:34:18.279Z,15.70
2022-09-28T10:36:58.837Z,13.80
2022-09-28T10:39:34.400Z,12.93
2022-09-28T10:42:10.742Z,12.70
2022-09-28T10:44:54.287Z,11.80
2022-09-28T10:47:31.336Z,11.53
2022-09-28T10:50:03.021Z,13.53
2022-09-28T10:52:37.068Z,14.60
2022-09-28T10:55:30.616Z,13.07
2022-09-28T10:58:02.601Z,13.43
2022-09-28T11:00:39.751Z,11.90
2022-09-28T11:03:21.749Z,12.13
2022-09-28T11:06:04.366Z,9.83
2022-09-28T11:08:41.621Z,10.10
2022-09-28T11:11:14.634Z,10.53
2022-09-28T11:13:50.650Z,10.47
2022-09-28T11:16:27.505Z,9.70
2022-09-28T11:19:06.957Z,10.40
2022-09-28T11:21:46.012Z,9.73
2022-09-28T11:24:27.277Z,8.67
2022-09-28T11:27:00.772Z,8.63
2022-09-28T11:29:40.448Z,8.47
2022-09-28T11:32:15.969Z,8.60
2022-09-28T11:34:59.670Z,9.10
2022-09-28T11:38:02.030Z,9.00
2022-09-28T11:40:54.543Z,9.47
2022-09-28T11:43:41.511Z,11.97
2022-09-28T11:46:28.182Z,12.60
2022-09-28T11:49:04.279Z,12.93
2022-09-28T11:51:44.290Z,13.53
2022-09-28T11:54:22.213Z,11.47
2022-09-28T11:56:54.339Z,12.70
2022-09-28T11:59:33.150Z,12.23
2022-09-28T12:02:14.976Z,11.37
2022-09-28T12:04:49.809Z,13.30
2022-09-28T12:07:28.888Z,13.20
2022-09-28T12:10:03.803Z,12.73
2022-09-28T12:12:41.328Z,11.77
2022-09-28T12:15:20.891Z,14.83
2022-09-28T12:17:55.580Z,13.73
2022-09-28T12:20:32.176Z,13.23
2022-09-28T12:23:10.552Z,12.17
2022-09-28T12:25:46.290Z,13.13
2022-09-28T12:28:27.662Z,13.30
2022-09-28T12:31:02.975Z,11.47
2022-09-28T12:33:33.808Z,12.30
2022-09-28T12:36:17.250Z,11.80
2022-09-28T12:39:31.007Z,11.73
2022-09-28T12:42:25.502Z,12.40
2022-09-28T12:45:17.433Z,12.20
2022-09-28T12:48:08.673Z,11.77
2022-09-28T12:50:57.113Z,13.50
2022-09-28T12:53:46.759Z,10.33
2022-09-28T12:56:32.196Z,11.40
2022-09-28T12:59:20.187Z,10.70
2022-09-28T13:02:30.072Z,12.67
2022-09-28T13:05:14.983Z,14.20
2022-09-28T13:07:53.931Z,10.97
2022-09-28T13:10:33.271Z,10.33
2022-09-28T13:13:29.196Z,10.30
2022-09-28T13:16:08.108Z,12.17
2022-09-28T13:18:48.501Z,12.23
2022-09-28T13:21:29.689Z,11.63
2022-09-28T13:24:27.819Z,13.20
2022-09-28T13:27:01.172Z,14.37
2022-09-28T13:32:12.657Z,12.40
2022-09-28T13:34:43.776Z,11.20
2022-09-28T13:37:25.367Z,11.30
2022-09-28T13:39:58.605Z,13.50
2022-09-28T13:43:00.655Z,13.07
2022-09-28T13:45:56.811Z,13.10
2022-09-28T13:48:44.450Z,11.47
2022-09-28T13:51:42.624Z,11.73
2022-09-28T13:54:50.349Z,12.87
2022-09-28T13:57:28.683Z,12.60
2022-09-28T14:00:11.657Z,12.00
2022-09-28T14:02:56.979Z,10.40
2022-09-28T14:05:49.265Z,10.40
2022-09-28T14:08:36.321Z,11.83
2022-09-28T14:11:43.775Z,10.90
2022-09-28T14:14:48.966Z,11.33
2022-09-28T14:17:50.454Z,12.23
2022-09-28T14:20:27.936Z,12.17
2022-09-28T14:23:20.997Z,12.43
2022-09-28T14:26:24.682Z,10.37
2022-09-28T14:29:10.548Z,10.80
2022-09-28T14:31:45.410Z,9.53
2022-09-28T14:34:48.800Z,9.83
2022-09-28T14:37:36.136Z,10.10
2022-09-28T14:40:31.642Z,10.13
2022-09-28T14:43:24.798Z,9.77
2022-09-28T14:46:31.774Z,8.90
2022-09-28T14:49:04.382Z,12.23
2022-09-28T14:52:06.297Z,11.57
2022-09-28T14:54:55.055Z,10.03
2022-09-28T14:57:30.368Z,10.70
2022-09-28T15:00:02.289Z,8.80
2022-09-28T15:02:36.086Z,10.30
2022-09-28T15:05:17.191Z,8.93
2022-09-28T15:07:53.964Z,8.40
2022-09-28T15:10:33.835Z,9.60
2022-09-28T15:13:07.062Z,8.63
2022-09-28T15:15:40.894Z,11.93
2022-09-28T15:18:33.803Z,8.97
2022-09-28T15:21:05.164Z,10.33
2022-09-28T15:23:44.488Z,10.80
2022-09-28T15:26:27.449Z,8.70
2022-09-28T15:28:58.677Z,10.13
2022-09-28T15:31:31.252Z,9.90
2022-09-28T15:34:14.706Z,9.60
2022-09-28T15:36:47.595Z,10.30
2022-09-28T15:39:24.032Z,10.93
2022-09-28T15:41:57.989Z,12.53
2022-09-28T15:44:33.891Z,9.47
2022-09-28T15:47:13.941Z,8.90
2022-09-28T15:49:57.560Z,9.37
2022-09-28T15:52:36.117Z,9.23
2022-09-28T15:55:23.680Z,8.37
2022-09-28T15:58:10.844Z,8.60
2022-09-28T16:00:42.413Z,8.20
2022-09-28T16:03:26.685Z,8.70
2022-09-28T16:06:11.464Z,17.50
2022-09-28T16:08:44.196Z,29.27
2022-09-28T16:11:26.231Z,20.17
2022-09-28T16:14:06.082Z,13.10
2022-09-28T16:16:43.323Z,9.87
2022-09-28T16:19:25.333Z,10.87
2022-09-28T16:22:00.822Z,10.43
2022-09-28T16:24:37.329Z,9.17
2022-09-28T16:27:25.933Z,8.17
2022-09-28T16:30:21.780Z,9.37
2022-09-28T16:32:56.469Z,11.03
2022-09-28T16:35:30.981Z,14.20
2022-09-28T16:38:14.394Z,12.80
2022-09-28T16:40:49.537Z,9.33
2022-09-28T16:43:27.259Z,9.83
2022-09-28T16:45:59.384Z,7.93
2022-09-28T16:48:31.964Z,9.00
2022-09-28T16:51:03.217Z,9.60
2022-09-28T16:53:46.557Z,8.53
2022-09-28T16:56:18.536Z,8.60
2022-09-28T16:58:52.293Z,7.80
2022-09-28T17:01:24.283Z,7.33
2022-09-28T17:03:55.462Z,8.00
2022-09-28T17:06:27.415Z,8.47
2022-09-28T17:09:00.180Z,9.30
2022-09-28T17:11:31.125Z,8.60
2022-09-28T17:14:06.521Z,8.20
2022-09-28T17:19:33.268Z,10.20
2022-09-28T17:22:04.436Z,9.57
2022-09-28T17:24:35.780Z,9.10
2022-09-28T17:27:11.578Z,8.10
2022-09-28T17:29:44.883Z,8.60
2022-09-28T17:32:21.306Z,8.07
2022-09-28T17:35:06.463Z,9.10
2022-09-28T17:37:43.364Z,7.20
2022-09-28T17:40:20.693Z,7.30
2022-09-28T17:42:55.191Z,7.60
2022-09-28T17:45:31.673Z,8.97
2022-09-28T17:48:03.468Z,8.23
2022-09-28T17:50:36.061Z,10.07
2022-09-28T17:53:07.341Z,8.67
2022-09-28T17:55:40.229Z,8.70
2022-09-28T17:58:21.575Z,8.40
2022-09-28T18:00:55.366Z,9.43
2022-09-28T18:03:27.897Z,9.40
2022-09-28T18:06:04.954Z,10.40
2022-09-28T18:08:36.459Z,11.07
2022-09-28T18:11:07.710Z,11.53
2022-09-28T18:13:42.359Z,10.37
2022-09-28T18:16:17.503Z,9.43
2022-09-28T18:18:50.656Z,10.40
2022-09-28T18:21:21.545Z,9.60
2022-09-28T18:23:52.797Z,8.83
2022-09-28T18:26:23.743Z,10.67
2022-09-28T18:28:57.671Z,9.80
2022-09-28T18:31:34.190Z,11.47
2022-09-28T18:34:05.826Z,11.53
2022-09-28T18:36:37.915Z,13.70
2022-09-28T18:39:08.733Z,16.20
2022-09-28T18:41:39.639Z,12.77
2022-09-28T18:44:10.589Z,13.00
2022-09-28T18:46:45.121Z,14.20
2022-09-28T18:49:16.297Z,14.90
2022-09-28T18:51:50.049Z,16.83
2022-09-28T18:54:20.947Z,17.43
2022-09-28T18:56:52.205Z,14.67
2022-09-28T18:59:23.251Z,13.47
2022-09-28T19:02:01.789Z,12.80
2022-09-28T19:04:35.121Z,12.17
2022-09-28T19:07:09.101Z,10.63
2022-09-28T19:09:44.002Z,10.97
2022-09-28T19:12:17.591Z,11.47
2022-09-28T19:14:48.477Z,11.07
2022-09-28T19:17:22.226Z,10.60
2022-09-28T19:19:54.412Z,9.80
2022-09-28T19:22:28.898Z,10.47
2022-09-28T19:24:59.992Z,9.60
2022-09-28T19:27:33.598Z,9.80
2022-09-28T19:30:04.484Z,9.47
2022-09-28T19:32:37.965Z,10.30
2022-09-28T19:35:09.950Z,9.77
2022-09-28T19:37:41.038Z,8.30
2022-09-28T19:40:12.652Z,9.20
2022-09-28T19:42:44.488Z,9.30
2022-09-28T19:45:15.632Z,8.50
2022-09-28T19:47:55.145Z,8.33
2022-09-28T19:50:29.572Z,8.00
2022-09-28T19:53:02.030Z,8.90
2022-09-28T19:55:39.194Z,9.80
2022-09-28T19:58:12.561Z,10.17
2022-09-28T20:00:53.064Z,8.93
2022-09-28T20:03:26.677Z,9.20
2022-09-28T20:06:00.120Z,8.97
2022-09-28T20:08:34.036Z,8.50
2022-09-28T20:11:06.050Z,10.30
2022-09-28T20:13:39.535Z,9.37
2022-09-28T20:16:12.300Z,11.23
2022-09-28T20:18:51.967Z,10.10
2022-09-28T20:21:26.793Z,10.00
2022-09-28T20:23:58.202Z,11.60
2022-09-28T20:26:29.995Z,9.13
2022-09-28T20:29:00.807Z,9.90
2022-09-28T20:31:31.802Z,8.60
2022-09-28T20:34:05.507Z,8.40
2022-09-28T20:36:37.162Z,8.13
2022-09-28T20:39:07.943Z,9.27
2022-09-28T20:41:39.880Z,8.00
2022-09-28T20:44:12.429Z,7.90
2022-09-28T20:46:44.726Z,7.70
2022-09-28T20:49:20.117Z,7.40
2022-09-28T20:51:51.060Z,7.80
2022-09-28T20:54:23.047Z,7.80
2022-09-28T20:56:53.888Z,9.97
2022-09-28T20:59:26.512Z,7.53
2022-09-28T21:01:57.616Z,10.43
2022-09-28T21:04:31.430Z,8.73
2022-09-28T21:07:02.523Z,9.23
2022-09-28T21:09:33.302Z,8.90
2022-09-28T21:12:07.439Z,9.90
2022-09-28T21:14:38.246Z,10.37
2022-09-28T21:17:09.277Z,11.00
2022-09-28T21:19:42.884Z,9.67
2022-09-28T21:22:14.197Z,10.97
2022-09-28T21:24:44.962Z,11.10
2022-09-28T21:27:15.868Z,11.67
2022-09-28T21:29:46.644Z,12.70
2022-09-28T21:32:17.407Z,10.27
2022-09-28T21:34:51.025Z,11.10
2022-09-28T21:37:22.991Z,10.43
2022-09-28T21:39:54.052Z,10.90
2022-09-28T21:42:28.838Z,11.07
2022-09-28T21:45:00.864Z,8.80
2022-09-28T21:47:34.993Z,9.33
2022-09-28T21:50:09.493Z,9.13
2022-09-28T21:52:40.197Z,10.60
2022-09-28T21:55:13.549Z,8.50
2022-09-28T21:57:44.294Z,9.80
2022-09-28T22:00:16.469Z,9.47
2022-09-28T22:02:48.244Z,8.83
2022-09-28T22:05:22.163Z,9.43
2022-09-28T22:07:54.697Z,10.60
2022-09-28T22:10:26.461Z,10.67
2022-09-28T22:13:02.482Z,9.10
2022-09-28T22:15:35.713Z,10.70
2022-09-28T22:18:09.232Z,11.30
2022-09-28T22:20:44.212Z,10.60
2022-09-28T22:23:15.419Z,10.73
2022-09-28T22:25:46.469Z,12.43
2022-09-28T22:28:17.375Z,11.17
2022-09-28T22:30:48.123Z,8.70
2022-09-28T22:33:19.146Z,9.50
2022-09-28T22:35:52.926Z,10.23
2022-09-28T22:38:25.454Z,10.93
2022-09-28T22:40:58.532Z,10.73
2022-09-28T22:43:30.930Z,8.70
2022-09-28T22:46:06.101Z,9.57
2022-09-28T22:48:39.977Z,11.60
2022-09-28T22:51:14.499Z,12.13
2022-09-28T22:53:45.773Z,12.40
2022-09-28T22:56:18.937Z,11.70
2022-09-28T22:58:50.292Z,13.40
2022-09-28T23:01:23.375Z,12.23
2022-09-28T23:03:55.639Z,12.77
2022-09-28T23:06:30.968Z,13.83
2022-09-28T23:09:02.216Z,11.97
2022-09-28T23:11:33.323Z,16.90
2022-09-28T23:14:04.134Z,14.73
2022-09-28T23:16:35.000Z,16.97
2022-09-28T23:19:07.612Z,16.97
2022-09-28T23:21:41.204Z,21.20
2022-09-28T23:24:13.608Z,17.33
2022-09-28T23:26:44.709Z,13.33
2022-09-28T23:29:15.450Z,15.90
2022-09-28T23:31:48.734Z,14.03
2022-09-28T23:34:21.714Z,15.17
2022-09-28T23:36:57.363Z,14.10
2022-09-28T23:39:31.183Z,14.70
2022-09-28T23:42:04.950Z,16.57
2022-09-28T23:44:35.910Z,11.43
2022-09-28T23:47:07.767Z,12.23
2022-09-28T23:49:38.678Z,11.90
2022-09-28T23:52:12.086Z,12.33
2022-09-28T23:54:43.282Z,12.03
2022-09-28T23:57:14.199Z,12.97
2022-09-28T23:59:45.065Z,11.37
